Time;durP1;ratioP1;P1;durP2;ratioP2;P2;SDS_P1;SDS_P2;PMS_P1;PMS_P2;Temp;Humidity;BMP_temperature;BMP_pressure;BME280_temperature;BME280_humidity;BME280_pressure;Samples;Min_cycle;Max_cycle;Signal;HPM_P1;HPM_P2
2023/08/18 00:01:17;;;;;;;9.43;4.15;;;;;;;;;;7393901;19;20015;-74
2023/08/18 00:03:43;;;;;;;8.75;4.03;;;;;;;;;;7371525;19;20403;-74
2023/08/18 00:06:08;;;;;;;6.65;4.20;;;;;;;;;;7372472;19;20031;-74
2023/08/18 00:08:33;;;;;;;8.30;3.97;;;;;;;;;;7372463;19;20062;-74
2023/08/18 00:10:59;;;;;;;9.30;4.20;;;;;;;;;;7372588;19;21102;-74
2023/08/18 00:13:24;;;;;;;6.70;3.90;;;;;;;;;;7391632;19;19991;-74
2023/08/18 00:15:50;;;;;;;8.05;4.00;;;;;;;;;;7371510;19;20002;-74
2023/08/18 00:18:15;;;;;;;8.98;4.00;;;;;;;;;;7372099;19;20082;-74
2023/08/18 00:20:40;;;;;;;9.77;4.32;;;;;;;;;;7372302;19;20023;-74
2023/08/18 00:23:06;;;;;;;6.35;3.92;;;;;;;;;;7371045;19;20037;-73
2023/08/18 00:25:31;;;;;;;6.05;4.10;;;;;;;;;;7391600;19;20044;-74
2023/08/18 00:27:56;;;;;;;9.07;4.30;;;;;;;;;;7371530;19;20006;-74
2023/08/18 00:30:24;;;;;;;5.65;4.05;;;;;;;;;;7372054;19;20036;-75
2023/08/18 00:32:52;;;;;;;8.38;4.32;;;;;;;;;;7370887;19;20597;-74
2023/08/18 00:35:18;;;;;;;6.95;4.20;;;;;;;;;;7370269;19;20484;-74
2023/08/18 00:37:45;;;;;;;8.40;4.20;;;;;;;;;;7374064;19;20038;-75
2023/08/18 00:40:11;;;;;;;8.32;4.32;;;;;;;;;;7394489;19;20014;-75
2023/08/18 00:42:36;;;;;;;7.13;4.53;;;;;;;;;;7373053;19;20046;-74
2023/08/18 00:45:02;;;;;;;6.15;4.20;;;;;;;;;;7370119;19;20014;-75
2023/08/18 00:47:29;;;;;;;8.50;4.20;;;;;;;;;;7371599;19;20018;-75
2023/08/18 00:49:56;;;;;;;7.75;4.95;;;;;;;;;;7371374;19;20027;-76
2023/08/18 00:52:22;;;;;;;7.88;4.40;;;;;;;;;;7392014;19;20019;-75
2023/08/18 00:54:49;;;;;;;8.57;4.80;;;;;;;;;;7368310;19;20011;-76
2023/08/18 00:57:15;;;;;;;6.65;4.13;;;;;;;;;;7370924;19;20090;-75
2023/08/18 00:59:41;;;;;;;9.40;4.82;;;;;;;;;;7370642;19;20027;-75
2023/08/18 01:02:07;;;;;;;8.02;4.50;;;;;;;;;;7369950;19;20481;-76
2023/08/18 01:04:32;;;;;;;7.90;4.63;;;;;;;;;;7390712;19;20121;-75
2023/08/18 01:06:59;;;;;;;7.63;4.95;;;;;;;;;;7369812;19;20002;-75
2023/08/18 01:09:25;;;;;;;8.23;4.90;;;;;;;;;;7369335;19;20559;-74
2023/08/18 01:12:14;;;;;;;10.10;5.00;;;;;;;;;;7368974;19;20014;-74
2023/08/18 01:14:52;;;;;;;6.57;4.72;;;;;;;;;;7368945;19;20684;-75
2023/08/18 01:17:25;;;;;;;8.07;4.93;;;;;;;;;;7370064;19;20006;-75
2023/08/18 01:19:52;;;;;;;9.05;5.00;;;;;;;;;;7366783;19;20023;-75
2023/08/18 01:22:18;;;;;;;6.38;4.40;;;;;;;;;;7388336;19;20006;-75
2023/08/18 01:24:43;;;;;;;8.20;4.78;;;;;;;;;;7364514;19;20006;-74
2023/08/18 01:27:09;;;;;;;7.40;4.90;;;;;;;;;;7366694;19;20369;-74
2023/08/18 01:29:35;;;;;;;8.80;5.10;;;;;;;;;;7365802;19;20460;-75
2023/08/18 01:32:04;;;;;;;7.72;4.85;;;;;;;;;;7366616;19;20002;-75
2023/08/18 01:34:30;;;;;;;9.07;5.35;;;;;;;;;;7386428;19;20003;-74
2023/08/18 01:36:59;;;;;;;8.32;5.07;;;;;;;;;;7365881;19;20018;-74
2023/08/18 01:39:26;;;;;;;9.80;5.30;;;;;;;;;;7367584;19;20039;-74
2023/08/18 01:41:52;;;;;;;6.85;5.18;;;;;;;;;;7379941;19;20008;-74
2023/08/18 01:44:21;;;;;;;9.02;5.00;;;;;;;;;;7368973;19;20006;-75
2023/08/18 01:46:46;;;;;;;6.93;4.90;;;;;;;;;;7369066;19;19999;-75
2023/08/18 01:49:13;;;;;;;8.35;4.80;;;;;;;;;;7390827;19;20555;-74
2023/08/18 01:51:38;;;;;;;9.50;5.43;;;;;;;;;;7368889;19;20017;-75
2023/08/18 01:54:03;;;;;;;7.88;4.95;;;;;;;;;;7367733;19;20015;-74
2023/08/18 01:56:29;;;;;;;8.02;5.25;;;;;;;;;;7368913;19;20532;-75
2023/08/18 01:58:54;;;;;;;6.53;4.78;;;;;;;;;;7368219;19;20475;-75
2023/08/18 02:01:19;;;;;;;7.88;5.10;;;;;;;;;;7390022;19;20054;-74
2023/08/18 02:03:45;;;;;;;9.80;5.00;;;;;;;;;;7367847;19;20018;-74
2023/08/18 02:06:10;;;;;;;7.38;4.97;;;;;;;;;;7367734;19;20018;-74
2023/08/18 02:08:35;;;;;;;7.65;4.75;;;;;;;;;;7369004;19;20040;-74
2023/08/18 02:11:02;;;;;;;10.10;5.57;;;;;;;;;;7369237;19;19995;-75
2023/08/18 02:13:28;;;;;;;7.63;4.97;;;;;;;;;;7389389;19;20003;-75
2023/08/18 02:15:53;;;;;;;10.55;5.30;;;;;;;;;;7368602;19;20449;-76
2023/08/18 02:18:18;;;;;;;8.57;5.22;;;;;;;;;;7368971;19;20082;-75
2023/08/18 02:20:44;;;;;;;10.48;4.93;;;;;;;;;;7368629;19;20050;-75
2023/08/18 02:23:09;;;;;;;9.95;5.15;;;;;;;;;;7368895;19;20010;-75
2023/08/18 02:25:34;;;;;;;9.63;5.22;;;;;;;;;;7392249;19;20043;-74
2023/08/18 02:28:00;;;;;;;7.65;6.10;;;;;;;;;;7375765;19;20006;-74
2023/08/18 02:30:26;;;;;;;8.05;5.03;;;;;;;;;;7375338;19;20090;-74
2023/08/18 02:32:51;;;;;;;9.05;5.30;;;;;;;;;;7378064;19;20043;-75
2023/08/18 02:35:16;;;;;;;7.30;5.60;;;;;;;;;;7378532;19;20014;-75
2023/08/18 02:37:42;;;;;;;7.15;5.32;;;;;;;;;;7379188;19;20027;-75
2023/08/18 02:40:08;;;;;;;9.70;4.97;;;;;;;;;;7398179;19;20002;-75
2023/08/18 02:42:35;;;;;;;10.25;5.80;;;;;;;;;;7374054;19;20030;-75
2023/08/18 02:45:00;;;;;;;8.70;5.82;;;;;;;;;;7373793;19;20011;-76
2023/08/18 02:47:26;;;;;;;10.80;5.70;;;;;;;;;;7374841;19;20024;-75
2023/08/18 02:49:51;;;;;;;10.65;5.53;;;;;;;;;;7374177;19;20001;-75
2023/08/18 02:52:17;;;;;;;9.25;5.95;;;;;;;;;;7396263;19;20050;-75
2023/08/18 02:54:42;;;;;;;8.93;5.60;;;;;;;;;;7371202;19;20098;-73
2023/08/18 02:57:08;;;;;;;7.80;5.28;;;;;;;;;;7374272;19;20002;-74
2023/08/18 02:59:33;;;;;;;7.88;5.65;;;;;;;;;;7373264;19;20018;-74
2023/08/18 03:01:58;;;;;;;10.27;5.72;;;;;;;;;;7373077;19;20020;-75
2023/08/18 03:04:24;;;;;;;7.95;5.72;;;;;;;;;;7393983;19;20019;-74
2023/08/18 03:06:49;;;;;;;10.48;6.15;;;;;;;;;;7380327;19;20007;-74
2023/08/18 03:09:16;;;;;;;10.77;5.53;;;;;;;;;;7387571;19;20007;-75
2023/08/18 03:11:42;;;;;;;7.88;5.40;;;;;;;;;;7374838;19;20124;-74
2023/08/18 03:14:07;;;;;;;10.65;5.30;;;;;;;;;;7371221;19;20537;-75
2023/08/18 03:16:33;;;;;;;6.80;5.50;;;;;;;;;;7395583;19;20010;-74
2023/08/18 03:18:58;;;;;;;6.97;5.40;;;;;;;;;;7373787;19;20028;-75
2023/08/18 03:21:24;;;;;;;7.40;5.47;;;;;;;;;;7373053;19;20007;-75
2023/08/18 03:23:49;;;;;;;8.65;5.53;;;;;;;;;;7371842;19;20010;-76
2023/08/18 03:26:14;;;;;;;9.20;5.57;;;;;;;;;;7373760;19;20002;-75
2023/08/18 03:28:40;;;;;;;9.68;6.10;;;;;;;;;;7394482;19;20013;-75
2023/08/18 03:31:07;;;;;;;8.65;5.57;;;;;;;;;;7377439;19;20014;-74
2023/08/18 03:33:33;;;;;;;8.60;5.78;;;;;;;;;;7372412;19;20506;-75
2023/08/18 03:35:58;;;;;;;11.02;5.72;;;;;;;;;;7370778;19;20033;-74
2023/08/18 03:38:25;;;;;;;8.73;5.35;;;;;;;;;;7373816;19;20011;-75
2023/08/18 03:40:57;;;;;;;9.13;5.75;;;;;;;;;;7373838;19;20026;-74
2023/08/18 03:43:22;;;;;;;9.45;6.35;;;;;;;;;;7396496;19;20094;-75
2023/08/18 03:45:47;;;;;;;9.52;6.55;;;;;;;;;;7373337;19;20416;-75
2023/08/18 03:48:13;;;;;;;8.40;5.95;;;;;;;;;;7373436;19;20022;-75
2023/08/18 03:50:39;;;;;;;11.82;6.50;;;;;;;;;;7373519;19;20014;-75
2023/08/18 03:53:04;;;;;;;9.40;5.97;;;;;;;;;;7372849;19;20516;-75
2023/08/18 03:55:30;;;;;;;11.00;6.20;;;;;;;;;;7392101;19;20019;-75
2023/08/18 03:57:55;;;;;;;9.32;5.97;;;;;;;;;;7372842;19;20014;-75
2023/08/18 04:00:20;;;;;;;9.23;6.32;;;;;;;;;;7370260;19;20006;-75
2023/08/18 04:02:46;;;;;;;8.98;5.95;;;;;;;;;;7369793;19;20034;-75
2023/08/18 04:05:12;;;;;;;9.23;6.80;;;;;;;;;;7369327;19;20019;-75
2023/08/18 04:07:37;;;;;;;8.63;6.25;;;;;;;;;;7391336;19;20040;-75
2023/08/18 04:10:03;;;;;;;9.50;5.95;;;;;;;;;;7370738;19;20015;-75
2023/08/18 04:12:28;;;;;;;9.25;6.13;;;;;;;;;;7369644;19;20066;-75
2023/08/18 04:14:55;;;;;;;11.27;7.22;;;;;;;;;;7370035;19;20372;-75
2023/08/18 04:17:21;;;;;;;10.30;6.38;;;;;;;;;;7370724;19;20027;-75
2023/08/18 04:19:46;;;;;;;8.70;6.68;;;;;;;;;;7371944;19;20337;-74
2023/08/18 04:22:11;;;;;;;10.93;6.47;;;;;;;;;;7393399;19;20009;-74
2023/08/18 04:24:37;;;;;;;11.95;7.10;;;;;;;;;;7368913;19;20441;-75
2023/08/18 04:27:02;;;;;;;8.90;7.05;;;;;;;;;;7370958;19;20478;-75
2023/08/18 04:29:28;;;;;;;10.57;6.55;;;;;;;;;;7357928;19;20517;-75
2023/08/18 04:31:54;;;;;;;10.38;7.00;;;;;;;;;;7359609;19;20002;-76
2023/08/18 04:34:19;;;;;;;11.05;7.68;;;;;;;;;;7396746;19;20471;-75
2023/08/18 04:36:45;;;;;;;9.50;6.93;;;;;;;;;;7381144;19;20360;-75
2023/08/18 04:39:11;;;;;;;10.40;6.80;;;;;;;;;;7369832;19;20007;-75
2023/08/18 04:41:36;;;;;;;10.07;7.05;;;;;;;;;;7369741;19;20363;-74
2023/08/18 04:44:02;;;;;;;9.40;6.97;;;;;;;;;;7370200;19;20017;-74
2023/08/18 04:46:28;;;;;;;10.35;7.30;;;;;;;;;;7392290;19;20003;-75
2023/08/18 04:48:54;;;;;;;12.02;7.13;;;;;;;;;;7368547;19;20014;-76
2023/08/18 04:51:19;;;;;;;10.73;6.50;;;;;;;;;;7371031;19;20030;-76
2023/08/18 04:53:45;;;;;;;9.30;6.07;;;;;;;;;;7368846;19;19998;-75
2023/08/18 04:56:10;;;;;;;8.73;6.40;;;;;;;;;;7367341;19;20417;-76
2023/08/18 04:58:35;;;;;;;9.25;6.20;;;;;;;;;;7389780;19;20009;-75
2023/08/18 05:01:01;;;;;;;8.05;6.05;;;;;;;;;;7367059;19;20027;-75
2023/08/18 05:03:27;;;;;;;7.80;5.68;;;;;;;;;;7367204;19;20002;-76
2023/08/18 05:06:04;;;;;;;8.98;5.60;;;;;;;;;;7367877;19;20002;-75
2023/08/18 05:08:31;;;;;;;8.90;6.03;;;;;;;;;;7367385;19;20009;-75
2023/08/18 05:10:58;;;;;;;10.48;5.20;;;;;;;;;;7368143;19;19999;-75
2023/08/18 05:13:24;;;;;;;9.35;5.30;;;;;;;;;;7390196;19;20092;-75
2023/08/18 05:15:49;;;;;;;9.57;5.22;;;;;;;;;;7369914;19;20014;-76
2023/08/18 05:18:14;;;;;;;8.18;5.63;;;;;;;;;;7371114;19;20019;-75
2023/08/18 05:20:40;;;;;;;9.07;4.85;;;;;;;;;;7370643;19;20019;-75
2023/08/18 05:23:05;;;;;;;9.35;5.20;;;;;;;;;;7369688;19;20017;-75
2023/08/18 05:25:31;;;;;;;8.77;5.05;;;;;;;;;;7391826;19;20019;-75
2023/08/18 05:27:57;;;;;;;11.25;5.60;;;;;;;;;;7372910;19;20013;-75
2023/08/18 05:30:22;;;;;;;7.50;4.88;;;;;;;;;;7373939;19;20010;-75
2023/08/18 05:32:48;;;;;;;9.40;4.85;;;;;;;;;;7376707;19;20524;-75
2023/08/18 05:35:13;;;;;;;11.40;4.70;;;;;;;;;;7373473;19;20084;-75
2023/08/18 05:37:38;;;;;;;7.28;4.85;;;;;;;;;;7399143;19;20019;-75
2023/08/18 05:40:05;;;;;;;7.93;4.43;;;;;;;;;;7375176;19;20015;-74
2023/08/18 05:42:30;;;;;;;9.02;4.72;;;;;;;;;;7369595;19;20038;-74
2023/08/18 05:44:55;;;;;;;6.93;4.70;;;;;;;;;;7367520;19;20350;-76
2023/08/18 05:47:21;;;;;;;6.57;4.68;;;;;;;;;;7369905;19;20725;-74
2023/08/18 05:49:46;;;;;;;6.60;4.38;;;;;;;;;;7368259;19;20040;-68
2023/08/18 05:52:11;;;;;;;8.40;4.75;;;;;;;;;;7389661;19;20054;-67
2023/08/18 05:54:36;;;;;;;10.02;4.63;;;;;;;;;;7365116;19;20022;-66
2023/08/18 05:57:02;;;;;;;8.10;4.40;;;;;;;;;;7368682;19;20007;-66
2023/08/18 05:59:31;;;;;;;7.82;4.63;;;;;;;;;;7368323;19;20044;-66
2023/08/18 06:01:56;;;;;;;10.07;4.20;;;;;;;;;;7371610;19;20456;-67
2023/08/18 06:04:22;;;;;;;8.48;4.35;;;;;;;;;;7389871;19;20030;-66
2023/08/18 06:06:47;;;;;;;8.52;4.38;;;;;;;;;;7366833;19;20023;-67
2023/08/18 06:09:12;;;;;;;7.05;4.28;;;;;;;;;;7368181;19;20354;-67
2023/08/18 06:11:38;;;;;;;8.60;4.50;;;;;;;;;;7368182;19;20030;-67
2023/08/18 06:14:03;;;;;;;6.85;4.72;;;;;;;;;;7366104;19;20442;-67
2023/08/18 06:16:28;;;;;;;7.95;4.38;;;;;;;;;;7388988;19;20068;-67
2023/08/18 06:18:54;;;;;;;7.90;4.28;;;;;;;;;;7367787;19;20358;-67
2023/08/18 06:21:19;;;;;;;9.30;4.00;;;;;;;;;;7365261;19;20010;-67
2023/08/18 06:23:44;;;;;;;11.10;4.15;;;;;;;;;;7367817;19;20010;-67
2023/08/18 06:26:10;;;;;;;7.82;4.30;;;;;;;;;;7367328;19;20666;-67
2023/08/18 06:28:35;;;;;;;9.65;4.20;;;;;;;;;;7389220;19;19998;-67
2023/08/18 06:31:07;;;;;;;7.65;3.97;;;;;;;;;;7367288;19;20013;-67
2023/08/18 06:33:36;;;;;;;7.93;3.83;;;;;;;;;;7365764;19;20003;-67
2023/08/18 06:36:02;;;;;;;7.55;4.15;;;;;;;;;;7366012;19;20011;-67
2023/08/18 06:38:28;;;;;;;9.52;4.03;;;;;;;;;;7368333;19;20006;-66
2023/08/18 06:40:54;;;;;;;6.88;3.83;;;;;;;;;;7366628;19;20014;-67
2023/08/18 06:43:19;;;;;;;8.82;3.85;;;;;;;;;;7389586;19;20033;-66
2023/08/18 06:45:45;;;;;;;7.25;4.00;;;;;;;;;;7366398;19;20017;-66
2023/08/18 06:48:10;;;;;;;6.22;3.88;;;;;;;;;;7367392;19;20044;-67
2023/08/18 06:50:35;;;;;;;8.70;3.90;;;;;;;;;;7367151;19;20010;-66
2023/08/18 06:53:01;;;;;;;6.88;3.72;;;;;;;;;;7366602;19;20000;-67
2023/08/18 06:55:26;;;;;;;7.57;4.20;;;;;;;;;;7386347;19;20111;-66
2023/08/18 06:57:52;;;;;;;6.82;3.88;;;;;;;;;;7366805;19;20468;-66
2023/08/18 07:00:19;;;;;;;8.07;3.80;;;;;;;;;;7367584;19;20006;-66
2023/08/18 07:02:45;;;;;;;8.05;4.05;;;;;;;;;;7366419;19;20010;-66
2023/08/18 07:05:12;;;;;;;7.75;4.70;;;;;;;;;;7365088;19;20384;-67
2023/08/18 07:07:38;;;;;;;7.13;3.47;;;;;;;;;;7389473;19;20016;-66
2023/08/18 07:10:03;;;;;;;6.75;3.80;;;;;;;;;;7366955;19;20524;-66
2023/08/18 07:12:29;;;;;;;7.60;3.70;;;;;;;;;;7372924;19;20011;-67
2023/08/18 07:14:54;;;;;;;6.13;3.50;;;;;;;;;;7372899;19;20006;-66
2023/08/18 07:17:19;;;;;;;9.57;3.93;;;;;;;;;;7374588;19;20014;-66
2023/08/18 07:19:45;;;;;;;6.40;3.75;;;;;;;;;;7372404;19;20625;-66
2023/08/18 07:22:10;;;;;;;9.57;4.18;;;;;;;;;;7395384;19;19998;-66
2023/08/18 07:24:35;;;;;;;9.20;3.92;;;;;;;;;;7371275;19;20010;-66
2023/08/18 07:27:01;;;;;;;9.07;3.90;;;;;;;;;;7374756;19;20030;-68
2023/08/18 07:29:26;;;;;;;6.32;3.65;;;;;;;;;;7374984;19;20010;-67
2023/08/18 07:31:52;;;;;;;7.13;3.88;;;;;;;;;;7373947;19;20012;-67
2023/08/18 07:34:17;;;;;;;6.68;3.38;;;;;;;;;;7392123;19;20452;-67
2023/08/18 07:36:42;;;;;;;7.43;3.47;;;;;;;;;;7372088;19;20074;-67
2023/08/18 07:39:10;;;;;;;7.65;3.65;;;;;;;;;;7373888;19;20018;-67
2023/08/18 07:41:39;;;;;;;5.78;3.53;;;;;;;;;;7373122;19;20070;-67
2023/08/18 07:44:05;;;;;;;7.18;3.95;;;;;;;;;;7371553;19;20014;-67
2023/08/18 07:46:30;;;;;;;10.43;3.28;;;;;;;;;;7393911;19;20528;-67
2023/08/18 07:48:55;;;;;;;7.47;3.80;;;;;;;;;;7372095;19;20433;-66
2023/08/18 07:51:21;;;;;;;5.65;3.30;;;;;;;;;;7372244;19;20010;-67
2023/08/18 07:53:46;;;;;;;6.40;4.03;;;;;;;;;;7371248;19;20018;-67
2023/08/18 07:56:11;;;;;;;9.25;3.78;;;;;;;;;;7371375;19;20006;-67
2023/08/18 07:58:37;;;;;;;6.65;3.63;;;;;;;;;;7394552;19;20034;-67
2023/08/18 08:01:03;;;;;;;7.53;3.80;;;;;;;;;;7368575;19;20003;-66
2023/08/18 08:03:28;;;;;;;9.18;3.25;;;;;;;;;;7370875;19;20006;-67
2023/08/18 08:05:54;;;;;;;7.78;3.45;;;;;;;;;;7371311;19;20062;-67
2023/08/18 08:08:19;;;;;;;8.40;3.50;;;;;;;;;;7371262;19;20010;-67
2023/08/18 08:10:44;;;;;;;7.80;3.17;;;;;;;;;;7371894;19;20003;-66
2023/08/18 08:13:10;;;;;;;6.55;3.50;;;;;;;;;;7392331;19;20006;-66
2023/08/18 08:15:36;;;;;;;6.68;3.60;;;;;;;;;;7370632;19;20014;-66
2023/08/18 08:18:01;;;;;;;7.70;3.88;;;;;;;;;;7361639;19;20006;-66
2023/08/18 08:20:27;;;;;;;7.68;3.90;;;;;;;;;;7371127;19;20044;-66
2023/08/18 08:22:52;;;;;;;5.68;3.83;;;;;;;;;;7368425;19;20935;-67
2023/08/18 08:25:17;;;;;;;8.70;4.38;;;;;;;;;;7390854;19;20066;-67
2023/08/18 08:27:43;;;;;;;6.75;3.50;;;;;;;;;;7370236;19;20069;-66
2023/08/18 08:30:11;;;;;;;7.38;3.50;;;;;;;;;;7370753;19;20011;-66
2023/08/18 08:32:37;;;;;;;5.32;3.50;;;;;;;;;;7368598;19;20014;-67
2023/08/18 08:35:02;;;;;;;9.32;3.42;;;;;;;;;;7369442;19;20021;-66
2023/08/18 08:37:27;;;;;;;7.93;3.90;;;;;;;;;;7393270;19;20008;-66
2023/08/18 08:39:53;;;;;;;10.23;3.60;;;;;;;;;;7370410;19;20029;-66
2023/08/18 08:42:18;;;;;;;7.63;3.70;;;;;;;;;;7371873;19;20016;-66
2023/08/18 08:44:44;;;;;;;6.35;3.40;;;;;;;;;;7368983;19;20031;-66
2023/08/18 08:47:10;;;;;;;6.20;3.60;;;;;;;;;;7371244;19;20014;-66
2023/08/18 08:49:39;;;;;;;8.40;3.60;;;;;;;;;;7392029;19;20410;-66
2023/08/18 08:52:08;;;;;;;6.95;3.58;;;;;;;;;;7371056;19;20011;-66
2023/08/18 08:54:48;;;;;;;7.30;4.00;;;;;;;;;;7370539;19;20011;-66
2023/08/18 08:57:16;;;;;;;9.23;3.58;;;;;;;;;;7372035;19;20402;-66
2023/08/18 08:59:41;;;;;;;6.45;3.80;;;;;;;;;;7370047;19;20010;-71
2023/08/18 09:02:07;;;;;;;9.00;3.80;;;;;;;;;;7370174;19;20583;-71
2023/08/18 09:04:32;;;;;;;9.25;4.13;;;;;;;;;;7389766;19;20015;-71
2023/08/18 09:06:57;;;;;;;10.18;3.65;;;;;;;;;;7371301;19;20018;-71
2023/08/18 09:09:23;;;;;;;7.68;3.85;;;;;;;;;;7370161;19;20007;-71
2023/08/18 09:11:48;;;;;;;7.90;3.65;;;;;;;;;;7371693;19;20006;-71
2023/08/18 09:14:15;;;;;;;6.80;3.70;;;;;;;;;;7368834;19;20482;-71
2023/08/18 09:16:44;;;;;;;9.73;4.13;;;;;;;;;;7387634;19;20009;-74
2023/08/18 09:19:13;;;;;;;7.57;3.83;;;;;;;;;;7390975;19;20357;-73
2023/08/18 09:21:39;;;;;;;6.82;3.60;;;;;;;;;;7367819;19;20022;-73
2023/08/18 09:24:05;;;;;;;7.95;3.72;;;;;;;;;;7363296;19;20014;-72
2023/08/18 09:26:30;;;;;;;6.65;3.40;;;;;;;;;;7367634;19;20017;-74
2023/08/18 09:28:56;;;;;;;5.75;3.78;;;;;;;;;;7367270;19;20095;-72
2023/08/18 09:31:21;;;;;;;6.32;3.60;;;;;;;;;;7387738;19;20002;-73
2023/08/18 09:33:46;;;;;;;8.27;3.65;;;;;;;;;;7364882;19;20010;-73
2023/08/18 09:36:12;;;;;;;7.50;3.58;;;;;;;;;;7367766;19;20035;-72
2023/08/18 09:38:41;;;;;;;7.32;3.80;;;;;;;;;;7370512;19;20014;-72
2023/08/18 09:41:08;;;;;;;8.20;3.65;;;;;;;;;;7369834;19;20459;-72
2023/08/18 09:43:34;;;;;;;6.57;4.07;;;;;;;;;;7391287;19;20427;-72
2023/08/18 09:46:03;;;;;;;6.72;4.00;;;;;;;;;;7368810;19;20018;-73
2023/08/18 09:48:34;;;;;;;6.35;3.78;;;;;;;;;;7369309;19;20519;-72
2023/08/18 09:51:01;;;;;;;7.88;3.75;;;;;;;;;;7369419;19;20804;-72
2023/08/18 09:53:29;;;;;;;6.03;3.55;;;;;;;;;;7369775;19;20014;-72
2023/08/18 09:56:00;;;;;;;6.47;3.67;;;;;;;;;;7367957;19;20002;-73
2023/08/18 09:58:54;;;;;;;9.75;4.00;;;;;;;;;;7390605;19;20009;-72
2023/08/18 10:01:21;;;;;;;8.13;3.75;;;;;;;;;;7366982;19;20107;-72
2023/08/18 10:03:47;;;;;;;7.95;4.00;;;;;;;;;;7367750;19;20756;-72
2023/08/18 10:06:12;;;;;;;7.75;3.70;;;;;;;;;;7367357;19;20045;-72
2023/08/18 10:08:40;;;;;;;8.18;3.85;;;;;;;;;;7368089;19;20039;-72
2023/08/18 10:11:06;;;;;;;8.90;3.65;;;;;;;;;;7367432;19;20015;-72
2023/08/18 10:13:33;;;;;;;6.32;3.40;;;;;;;;;;7389789;19;20418;-72
2023/08/18 10:16:01;;;;;;;8.93;3.90;;;;;;;;;;7367310;19;20087;-73
2023/08/18 10:18:27;;;;;;;6.30;3.33;;;;;;;;;;7367921;19;20090;-72
2023/08/18 10:20:53;;;;;;;7.20;3.55;;;;;;;;;;7372516;19;20006;-72
2023/08/18 10:23:20;;;;;;;8.07;3.67;;;;;;;;;;7368398;19;20014;-72
2023/08/18 10:25:49;;;;;;;6.65;3.17;;;;;;;;;;7367978;19;20725;-72
2023/08/18 10:28:19;;;;;;;9.57;3.58;;;;;;;;;;7390260;19;20006;-72
2023/08/18 10:31:03;;;;;;;8.30;3.33;;;;;;;;;;7366009;19;20011;-72
2023/08/18 10:33:35;;;;;;;6.75;3.17;;;;;;;;;;7365224;19;20011;-72
2023/08/18 10:36:02;;;;;;;7.05;3.47;;;;;;;;;;7368619;19;20007;-72
2023/08/18 10:38:29;;;;;;;5.97;3.10;;;;;;;;;;7395205;19;20011;-69
2023/08/18 10:40:55;;;;;;;7.78;3.40;;;;;;;;;;7400412;19;20001;-72
2023/08/18 10:43:20;;;;;;;6.85;3.22;;;;;;;;;;7416253;19;20330;-72
2023/08/18 10:45:50;;;;;;;6.13;3.20;;;;;;;;;;7370926;19;20373;-67
2023/08/18 10:48:15;;;;;;;6.30;3.38;;;;;;;;;;7377507;19;20773;-67
2023/08/18 10:50:44;;;;;;;8.00;3.40;;;;;;;;;;7379374;19;20026;-73
2023/08/18 10:53:11;;;;;;;6.10;3.47;;;;;;;;;;7380896;19;20051;-73
2023/08/18 10:55:37;;;;;;;7.00;3.33;;;;;;;;;;7399676;19;20006;-73
2023/08/18 10:58:02;;;;;;;5.28;2.97;;;;;;;;;;7376767;19;20417;-73
2023/08/18 11:00:35;;;;;;;6.43;3.67;;;;;;;;;;7374850;19;20021;-73
2023/08/18 11:03:03;;;;;;;6.38;3.47;;;;;;;;;;7375263;19;20118;-74
2023/08/18 11:05:33;;;;;;;6.32;3.42;;;;;;;;;;7370088;19;20006;-73
2023/08/18 11:07:59;;;;;;;5.55;3.10;;;;;;;;;;7374691;19;20011;-73
2023/08/18 11:10:25;;;;;;;5.50;3.00;;;;;;;;;;7396737;19;20010;-73
2023/08/18 11:12:53;;;;;;;5.88;4.05;;;;;;;;;;7373483;19;20006;-73
2023/08/18 11:15:19;;;;;;;5.95;3.00;;;;;;;;;;7370427;19;20002;-73
2023/08/18 11:17:46;;;;;;;7.05;3.17;;;;;;;;;;7374605;19;20515;-74
2023/08/18 11:20:12;;;;;;;7.72;3.28;;;;;;;;;;7375416;19;20387;-73
2023/08/18 11:22:41;;;;;;;6.40;3.30;;;;;;;;;;7396406;19;20023;-74
2023/08/18 11:25:11;;;;;;;7.30;3.15;;;;;;;;;;7371898;19;20006;-74
2023/08/18 11:27:40;;;;;;;5.90;3.22;;;;;;;;;;7373618;19;20011;-74
2023/08/18 11:30:06;;;;;;;4.82;3.20;;;;;;;;;;7373127;19;20010;-74
2023/08/18 11:32:31;;;;;;;9.77;3.40;;;;;;;;;;7374001;19;20010;-74
2023/08/18 11:34:59;;;;;;;6.00;3.45;;;;;;;;;;7371305;19;20366;-75
2023/08/18 11:37:27;;;;;;;5.78;3.50;;;;;;;;;;7396229;19;19998;-73
2023/08/18 11:39:53;;;;;;;5.82;3.10;;;;;;;;;;7373057;19;20467;-74
2023/08/18 11:42:20;;;;;;;5.80;3.30;;;;;;;;;;7374556;19;20027;-73
2023/08/18 11:44:49;;;;;;;5.85;3.10;;;;;;;;;;7372303;19;20352;-74
2023/08/18 11:47:18;;;;;;;9.30;3.43;;;;;;;;;;7374927;19;20087;-74
2023/08/18 11:49:44;;;;;;;7.38;3.38;;;;;;;;;;7376135;19;20016;-74
2023/08/18 11:52:09;;;;;;;5.45;3.20;;;;;;;;;;7395548;19;20002;-74
2023/08/18 11:54:36;;;;;;;6.20;3.30;;;;;;;;;;7371296;19;20518;-75
2023/08/18 11:57:04;;;;;;;7.22;3.20;;;;;;;;;;7372595;19;20006;-74
2023/08/18 11:59:29;;;;;;;9.30;3.53;;;;;;;;;;7372625;19;20017;-74
2023/08/18 12:01:57;;;;;;;5.85;3.05;;;;;;;;;;7370944;19;20003;-74
2023/08/18 12:04:24;;;;;;;5.90;3.05;;;;;;;;;;7393545;19;19999;-75
2023/08/18 12:06:50;;;;;;;6.85;3.40;;;;;;;;;;7371563;19;20006;-76
2023/08/18 12:09:15;;;;;;;7.18;3.58;;;;;;;;;;7371521;19;20043;-75
2023/08/18 12:11:41;;;;;;;6.05;3.20;;;;;;;;;;7373234;19;20015;-75
2023/08/18 12:14:07;;;;;;;5.50;3.03;;;;;;;;;;7370701;19;20025;-75
2023/08/18 12:16:33;;;;;;;5.60;3.08;;;;;;;;;;7394516;19;20014;-76
2023/08/18 12:18:58;;;;;;;8.68;3.25;;;;;;;;;;7372346;19;20006;-75
2023/08/18 12:21:23;;;;;;;5.53;2.90;;;;;;;;;;7372340;19;20006;-76
2023/08/18 12:23:49;;;;;;;5.28;3.08;;;;;;;;;;7371242;19;20052;-76
2023/08/18 12:26:17;;;;;;;5.15;3.20;;;;;;;;;;7371186;19;20014;-75
2023/08/18 12:28:42;;;;;;;7.20;3.00;;;;;;;;;;7371754;19;20038;-75
2023/08/18 12:31:08;;;;;;;5.68;3.17;;;;;;;;;;7393835;19;20472;-74
2023/08/18 12:33:33;;;;;;;6.83;3.20;;;;;;;;;;7370272;19;20730;-74
2023/08/18 12:35:58;;;;;;;10.82;3.63;;;;;;;;;;7371120;19;20341;-75
2023/08/18 12:38:23;;;;;;;8.77;3.20;;;;;;;;;;7372387;19;20044;-75
2023/08/18 12:40:49;;;;;;;7.95;2.90;;;;;;;;;;7371940;19;20024;-75
2023/08/18 12:43:15;;;;;;;5.82;3.00;;;;;;;;;;7392997;19;20011;-73
2023/08/18 12:45:40;;;;;;;5.13;3.00;;;;;;;;;;7370587;19;20484;-74
2023/08/18 12:48:06;;;;;;;4.72;2.80;;;;;;;;;;7370983;19;20078;-74
2023/08/18 12:50:31;;;;;;;7.60;2.90;;;;;;;;;;7371632;19;20018;-75
2023/08/18 12:52:56;;;;;;;6.07;2.92;;;;;;;;;;7370785;19;20505;-73
2023/08/18 12:55:22;;;;;;;6.77;3.23;;;;;;;;;;7390983;19;20811;-74
2023/08/18 12:57:47;;;;;;;4.50;2.90;;;;;;;;;;7370969;19;20263;-74
2023/08/18 13:00:13;;;;;;;6.55;3.08;;;;;;;;;;7371479;19;20252;-73
2023/08/18 13:02:38;;;;;;;7.63;3.33;;;;;;;;;;7369884;19;20010;-74
2023/08/18 13:05:04;;;;;;;8.60;3.20;;;;;;;;;;7368985;19;20581;-73
2023/08/18 13:07:29;;;;;;;6.53;2.78;;;;;;;;;;7392386;19;20244;-73
2023/08/18 13:09:54;;;;;;;7.45;3.10;;;;;;;;;;7369374;19;20015;-74
2023/08/18 13:12:20;;;;;;;5.50;3.25;;;;;;;;;;7369987;19;20010;-74
2023/08/18 13:14:45;;;;;;;5.75;3.17;;;;;;;;;;7368497;19;20109;-74
2023/08/18 13:17:11;;;;;;;5.50;3.10;;;;;;;;;;7374428;19;20011;-74
2023/08/18 13:19:37;;;;;;;4.75;2.95;;;;;;;;;;7395950;19;20633;-74
2023/08/18 13:22:02;;;;;;;6.13;2.95;;;;;;;;;;7370224;19;20010;-73
2023/08/18 13:24:28;;;;;;;5.93;3.28;;;;;;;;;;7367905;19;20011;-74
2023/08/18 13:26:55;;;;;;;5.33;2.80;;;;;;;;;;7370104;19;20011;-73
2023/08/18 13:29:21;;;;;;;5.88;2.90;;;;;;;;;;7368671;19;20262;-73
2023/08/18 13:31:48;;;;;;;6.28;2.85;;;;;;;;;;7369231;19;20014;-75
2023/08/18 13:34:13;;;;;;;7.43;2.70;;;;;;;;;;7388032;19;20002;-74
2023/08/18 13:36:40;;;;;;;5.53;2.72;;;;;;;;;;7364255;19;20013;-74
2023/08/18 13:39:06;;;;;;;7.32;2.97;;;;;;;;;;7366244;19;20014;-75
2023/08/18 13:41:31;;;;;;;5.60;3.55;;;;;;;;;;7367795;19;20389;-74
2023/08/18 13:43:57;;;;;;;5.00;2.70;;;;;;;;;;7368114;19;20605;-74
2023/08/18 13:46:22;;;;;;;4.03;2.50;;;;;;;;;;7391486;19;20002;-74
2023/08/18 13:48:48;;;;;;;7.57;2.83;;;;;;;;;;7368951;19;20007;-76
2023/08/18 13:51:13;;;;;;;7.72;2.80;;;;;;;;;;7369748;19;20073;-75
2023/08/18 13:53:39;;;;;;;4.15;2.70;;;;;;;;;;7369432;19;20014;-75
2023/08/18 13:56:06;;;;;;;9.32;3.10;;;;;;;;;;7366351;19;20013;-75
2023/08/18 13:58:31;;;;;;;6.22;2.75;;;;;;;;;;7390720;19;20635;-66
2023/08/18 14:01:01;;;;;;;5.93;3.00;;;;;;;;;;7367389;19;20010;-74
2023/08/18 14:03:26;;;;;;;7.78;2.78;;;;;;;;;;7367325;19;20583;-75
2023/08/18 14:05:51;;;;;;;7.15;2.53;;;;;;;;;;7368527;19;20078;-74
2023/08/18 14:08:17;;;;;;;4.57;2.65;;;;;;;;;;7369671;19;20396;-74
2023/08/18 14:10:42;;;;;;;5.53;2.70;;;;;;;;;;7368741;19;20006;-75
2023/08/18 14:13:07;;;;;;;6.78;2.92;;;;;;;;;;7389702;19;20010;-74
2023/08/18 14:15:33;;;;;;;6.13;2.58;;;;;;;;;;7367995;19;20276;-74
2023/08/18 14:17:58;;;;;;;7.65;2.80;;;;;;;;;;7368795;19;20013;-75
2023/08/18 14:20:24;;;;;;;4.75;2.40;;;;;;;;;;7373997;19;20456;-75
2023/08/18 14:22:51;;;;;;;4.38;2.50;;;;;;;;;;7376589;19;20011;-74
2023/08/18 14:25:19;;;;;;;6.00;2.60;;;;;;;;;;7394610;19;20417;-74
2023/08/18 14:27:45;;;;;;;5.10;2.40;;;;;;;;;;7374281;19;20014;-74
2023/08/18 14:30:10;;;;;;;5.05;2.60;;;;;;;;;;7376018;19;20006;-75
2023/08/18 14:32:36;;;;;;;8.05;2.90;;;;;;;;;;7374844;19;20010;-74
2023/08/18 14:35:04;;;;;;;5.15;2.67;;;;;;;;;;7374315;19;20067;-73